Terminal Aerodrome Forecast
Issued by NWS Shreveport, LA

Home | Current Version | Previous Version | Text Only | Print | Product List | Glossary On
Versions: 1 2 3 4 5 6 7 8 9 10 11 12 13 14 15
000
FTUS44 KSHV 300538
TAFTXK
TAF
KTXK 300538Z 3006/0106 19006KT P6SM VCTS SCT050CB BKN180 BKN250
      TEMPO 3006/3010 3SM -TSRA BR BKN040CB
     FM301200 21007KT P6SM VCTS SCT040CB SCT100 BKN250
      TEMPO 3012/3016 3SM -TSRA BR BKN040CB
     FM301600 25008KT P6SM SCT050 SCT130 SCT250
     FM010000 21006KT P6SM FEW060 SCT150 SCT250=

USA.gov is the U.S. government's official web portal to all federal, state and local government web resources and services.